Saturday, November 1, 2014, 1:51 AM EDT

KPOU, Poughkeepsie Dutchess Cty

Location: Wappingers Falls, NY, United States Lat: 41.633
Local Time: 1:51 AM EDT ( 5:51 GMT) Lon: -73.883
Time Zone: US/Eastern Elev: 167 ft

Show me the last for .
Show Decoded

2014-11-01 00:53 METAR KPOU 010453Z AUTO 03008KT 10SM OVC037 09/03 A2991 RMK AO2 SLP126 T00890028
                 401280000 TSNO =
2014-10-31 23:25 METAR KPOU 010325Z AUTO 09006KT 10SM FEW025 BKN038 OVC055 09/04 A2992 RMK AO2
                 T00940039 TSNO =
2014-10-31 22:53 METAR KPOU 010253Z AUTO 08006KT 10SM OVC024 10/04 A2992 RMK AO2 SLP131 T01000044
                 57001 TSNO =
2014-10-31 21:53 METAR KPOU 010153Z AUTO 07007KT 10SM OVC028 10/04 A2992 RMK AO2 SLP130 T01000039
                 TSNO =
2014-10-31 20:53 METAR KPOU 010053Z AUTO 35003KT 10SM OVC039 11/03 A2993 RMK AO2 SLP132 T01060033
                 TSNO =
2014-10-31 19:53 METAR KPOU 312353Z 03004KT 10SM OVC041 10/03 A2993 RMK AO2 SLP132 T01000033
                 10128 20100 53006 =
2014-10-31 18:53 METAR KPOU 312253Z 00000KT 10SM OVC070 11/03 A2992 RMK AO2 SLP130 T01060033 =
2014-10-31 17:53 METAR KPOU 312153Z 03005KT 10SM OVC065 11/03 A2991 RMK AO2 SLP127 T01110028 =
2014-10-31 16:53 METAR KPOU 312053Z AUTO 10SM BKN060 12/02 A2991 RMK AO2 SLP126 T01220022 55015
                 TSNO =
2014-10-31 15:53 METAR KPOU 311953Z AUTO 01008KT 10SM FEW055 12/02 A2991 RMK AO2 SLP124 T01220022
                 TSNO =
2014-10-31 14:53 METAR KPOU 311853Z 33006KT 10SM BKN050 11/03 A2994 RMK AO2 SLP135 T01110028 =
2014-10-31 13:53 METAR KPOU 311753Z 33005KT 10SM BKN050 11/03 A2995 RMK AO2 SLP140 T01060028
                 10106 20000 58019 =
2014-10-31 12:53 METAR KPOU 311653Z 36005KT 10SM SCT050 10/02 A2997 RMK AO2 SLP148 T01000022 =
2014-10-31 11:53 METAR KPOU 311553Z 01003KT 10SM CLR 09/03 A3000 RMK AO2 SLP156 T00890028 =
2014-10-31 10:53 METAR KPOU 311453Z 03003KT 10SM BKN050 07/03 A3001 RMK AO2 SLP159 T00720028
                 58010 =
2014-10-31 09:53 METAR KPOU 311353Z 00000KT 10SM FEW003 BKN050 04/03 A3003 RMK AO2 SLP167
                 T00440028 =
2014-10-31 09:44 METAR KPOU 311344Z 00000KT 10SM SCT003 BKN050 04/02 A3004 RMK AO2 T00390022 =
2014-10-31 09:35 METAR KPOU 311335Z 00000KT 7SM BKN003 BKN050 04/02 A3004 RMK AO2 T00390022 =
2014-10-31 08:53 METAR KPOU 311253Z 00000KT 2 1/2SM BR OVC002 02/01 A3005 RMK AO2 SLP173
                 T00220011 =
2014-10-31 08:32 METAR KPOU 311232Z 00000KT 10SM BKN003 01/M01 A3004 RMK AO2 T00111006 =
2014-10-31 07:53 METAR KPOU 311153Z 00000KT 10SM CLR 00/M02 A3004 RMK AO2 SLP169 I6000 T00001017
                 10061 20000 53005 =
2014-10-31 06:53 METAR KPOU 311053Z 00000KT 10SM CLR 01/M01 A3003 RMK AO2 SLP165 I1000 T00061011
                 =
2014-10-31 05:53 METAR KPOU 310953Z AUTO 00000KT 10SM CLR 01/M01 A3002 RMK AO2 SLP164 T00111006
                 TSNO =
2014-10-31 04:53 METAR KPOU 310853Z AUTO 00000KT 10SM CLR 02/01 A3002 RMK AO2 SLP164 T00170006
                 56002 TSNO =
2014-10-31 03:53 METAR KPOU 310753Z AUTO 00000KT 10SM CLR 03/02 A3002 =
2014-10-31 02:53 METAR KPOU 310653Z AUTO 00000KT 10SM OVC048 06/02 A3002 RMK AO2 SLP164 T00560017
                 TSNO =
2014-10-31 01:53 METAR KPOU 310553Z AUTO 36003KT 10SM BKN049 06/02 A3003 RMK AO2 SLP165 T00610017
                 10111 20061 50001 TSNO =

Support USWX by starting your Amazon purchase here.